Time;durP1;ratioP1;P1;durP2;ratioP2;P2;SDS_P1;SDS_P2;PMS_P1;PMS_P2;Temp;Humidity;BMP_temperature;BMP_pressure;BME280_temperature;BME280_humidity;BME280_pressure;Samples;Min_cycle;Max_cycle;Signal;HPM_P1;HPM_P2
2024/03/10 00:00:39;;;;;;;48.70;22.20;;;;;;;14.74;38.93;98452.60;135267;1281;22526;-69
2024/03/10 00:04:01;;;;;;;51.40;24.40;;;;;;;14.97;38.70;98451.61;135255;1281;22528;-68
2024/03/10 00:07:04;;;;;;;54.60;24.40;;;;;;;14.81;38.79;98455.01;135249;1281;22544;-69
2024/03/10 00:10:07;;;;;;;;;;;;;;;14.79;38.77;98460.14;135290;1266;22513;-68
2024/03/10 00:13:09;;;;;;;49.20;21.70;;;;;;;14.82;38.95;98457.56;135245;1281;22522;-69
2024/03/10 00:16:12;;;;;;;;;;;;;;;14.67;39.25;98453.88;135302;1281;22557;-69
2024/03/10 00:19:15;;;;;;;54.40;24.30;;;;;;;14.57;39.30;98452.77;135276;1281;22529;-70
2024/03/10 00:22:17;;;;;;;54.10;24.50;;;;;;;14.72;39.07;98449.41;135255;1263;24205;-70
2024/03/10 00:25:20;;;;;;;56.10;23.70;;;;;;;14.86;38.66;98447.92;135257;1281;22535;-70
2024/03/10 00:28:22;;;;;;;55.00;24.70;;;;;;;14.90;38.72;98446.36;135282;1281;22534;-68
2024/03/10 00:31:25;;;;;;;;;;;;;;;14.70;39.08;98447.29;135317;1264;22767;-69
2024/03/10 00:34:27;;;;;;;54.90;24.20;;;;;;;14.67;39.06;98444.91;135267;1281;25259;-68
2024/03/10 00:37:30;;;;;;;55.20;24.80;;;;;;;14.67;39.00;98439.49;135323;1281;22558;-70
2024/03/10 00:40:32;;;;;;;54.40;23.90;;;;;;;14.78;38.91;98436.45;135287;1281;22642;-69
2024/03/10 00:43:35;;;;;;;58.40;25.80;;;;;;;14.70;39.09;98433.63;135313;1281;22542;-69
2024/03/10 00:46:37;;;;;;;52.60;25.30;;;;;;;14.60;39.25;98425.11;135298;1281;22643;-70
2024/03/10 00:49:40;;;;;;;;;;;;;;;14.69;39.02;98425.19;135308;1281;22505;-71
2024/03/10 00:52:42;;;;;;;50.50;23.30;;;;;;;14.56;39.11;98433.88;135297;1281;22653;-70
2024/03/10 00:55:46;;;;;;;;;;;;;;;14.86;38.53;98424.98;135303;1271;22534;-70
2024/03/10 00:58:48;;;;;;;56.60;24.00;;;;;;;14.79;38.63;98426.87;135290;1281;22549;-70
2024/03/10 01:01:51;;;;;;;54.60;25.40;;;;;;;14.82;38.52;98427.98;135288;1281;22537;-70
2024/03/10 01:04:53;;;;;;;58.10;26.40;;;;;;;14.69;38.79;98426.63;135305;1281;22576;-69
2024/03/10 01:07:56;;;;;;;58.50;26.90;;;;;;;14.68;38.79;98427.55;135292;1281;22548;-70
2024/03/10 01:11:00;;;;;;;;;;;;;;;14.62;38.91;98435.82;135301;1281;22518;-70
2024/03/10 01:14:03;;;;;;;53.90;25.20;;;;;;;14.59;38.79;98438.84;135278;1281;22583;-69
2024/03/10 01:17:08;;;;;;;54.40;24.20;;;;;;;14.55;38.98;98438.02;135330;1281;22611;-70
2024/03/10 01:20:10;;;;;;;52.60;23.00;;;;;;;14.35;39.06;98438.21;135305;1281;22533;-68
2024/03/10 01:23:13;;;;;;;52.60;24.30;;;;;;;14.54;38.80;98433.30;135266;1281;22525;-68
2024/03/10 01:26:16;;;;;;;;;;;;;;;14.78;38.56;98432.42;135311;1281;24399;-68
2024/03/10 01:29:19;;;;;;;55.60;24.60;;;;;;;14.54;39.14;98426.79;135322;1281;22521;-69
2024/03/10 01:32:21;;;;;;;52.20;24.60;;;;;;;14.62;38.78;98430.39;135243;1281;22594;-69
2024/03/10 01:35:24;;;;;;;54.20;24.80;;;;;;;14.60;38.87;98420.17;135252;1281;26584;-69
2024/03/10 01:38:26;;;;;;;;;;;;;;;14.39;38.91;98418.17;135315;1271;22616;-69
2024/03/10 01:41:29;;;;;;;61.30;26.40;;;;;;;14.68;38.68;98414.73;135307;1281;22560;-68
2024/03/10 01:44:32;;;;;;;57.30;25.90;;;;;;;14.60;38.75;98411.06;135305;1281;22548;-66
2024/03/10 01:47:34;;;;;;;59.40;26.20;;;;;;;14.88;38.30;98411.83;135270;1281;22537;-68
2024/03/10 01:50:37;;;;;;;;;;;;;;;14.92;38.17;98411.68;135300;1281;22502;-68
2024/03/10 01:53:40;;;;;;;52.20;24.30;;;;;;;14.98;38.16;98409.55;135309;1281;23525;-67
2024/03/10 01:56:43;;;;;;;51.40;23.50;;;;;;;14.89;38.30;98416.67;135292;1281;22530;-68
2024/03/10 01:59:45;;;;;;;53.50;24.10;;;;;;;14.90;38.27;98417.65;135332;1281;22611;-68
2024/03/10 02:02:48;;;;;;;;;;;;;;;14.94;38.67;98416.30;135324;1281;25256;-69
2024/03/10 02:05:51;;;;;;;54.00;24.10;;;;;;;14.86;38.36;98413.60;135270;1281;22789;-69
2024/03/10 02:08:54;;;;;;;54.20;24.50;;;;;;;14.86;38.45;98413.05;135290;1281;22581;-69
2024/03/10 02:11:57;;;;;;;55.30;25.50;;;;;;;14.91;38.53;98411.44;135272;1281;22530;-67
2024/03/10 02:15:00;;;;;;;54.10;24.20;;;;;;;15.08;38.35;98403.08;135252;1281;22620;-67
2024/03/10 02:18:02;;;;;;;52.10;24.70;;;;;;;15.25;37.96;98395.80;135310;1281;22581;-68
2024/03/10 02:21:06;;;;;;;55.90;25.00;;;;;;;15.16;37.95;98390.09;135205;1281;22649;-67
2024/03/10 02:24:11;;;;;;;54.90;24.50;;;;;;;15.12;38.04;98387.91;135323;1281;22542;-69
2024/03/10 02:27:16;;;;;;;53.10;23.80;;;;;;;15.12;37.95;98380.73;135315;1281;22546;-70
2024/03/10 02:30:31;;;;;;;54.90;23.50;;;;;;;15.11;37.99;98377.30;135306;1281;22526;-70
2024/03/10 02:47:16;;;;;;;50.00;22.70;;;;;;;15.40;37.91;98372.98;135333;1281;22562;-69
2024/03/10 02:50:20;;;;;;;58.30;25.90;;;;;;;15.69;37.20;98370.67;135280;1281;22556;-68
2024/03/10 02:53:23;;;;;;;52.90;25.30;;;;;;;15.64;37.13;98375.48;135329;1281;22668;-72
2024/03/10 02:56:25;;;;;;;;;;;;;;;15.63;37.31;98365.59;135304;1281;22505;-73
2024/03/10 02:59:29;;;;;;;51.20;23.60;;;;;;;15.47;37.46;98359.02;135294;1281;22538;-66
2024/03/10 03:02:32;;;;;;;56.40;24.50;;;;;;;15.13;37.88;98354.91;135290;1281;22548;-68
2024/03/10 03:05:34;;;;;;;;;;;;;;;14.99;38.19;98351.38;135364;1262;22540;-68
2024/03/10 03:08:37;;;;;;;56.00;23.10;;;;;;;15.19;38.17;98350.41;135315;1281;22532;-68
2024/03/10 03:11:40;;;;;;;54.90;24.70;;;;;;;15.28;37.83;98340.23;135334;1281;22547;-71
2024/03/10 03:14:43;;;;;;;50.90;24.20;;;;;;;14.95;38.52;98343.79;135340;1281;26507;-68
2024/03/10 03:17:45;;;;;;;52.80;25.00;;;;;;;14.85;38.77;98335.84;135336;1281;22549;-70
2024/03/10 03:20:49;;;;;;;51.40;23.80;;;;;;;15.20;37.96;98330.73;135344;1281;24265;-69
2024/03/10 03:23:52;;;;;;;50.50;24.30;;;;;;;15.31;37.79;98325.33;135336;1281;22582;-70
2024/03/10 03:26:56;;;;;;;53.20;25.50;;;;;;;15.25;37.97;98323.27;135314;1281;25472;-68
2024/03/10 03:29:58;;;;;;;48.80;23.10;;;;;;;15.14;38.26;98325.81;135344;1281;22536;-68
2024/03/10 03:33:01;;;;;;;;;;;;;;;15.03;38.25;98331.92;135355;1281;23303;-68
2024/03/10 03:36:04;;;;;;;52.20;22.60;;;;;;;15.07;38.21;98335.94;135361;1281;24263;-67
2024/03/10 03:39:09;;;;;;;52.10;23.00;;;;;;;14.97;38.02;98335.69;135316;1281;22751;-69
2024/03/10 03:42:13;;;;;;;48.70;23.00;;;;;;;14.97;38.25;98336.27;135321;1281;22542;-69
2024/03/10 03:45:16;;;;;;;51.70;24.00;;;;;;;15.20;37.80;98336.73;135350;1281;22555;-70
2024/03/10 03:48:18;;;;;;;48.50;22.60;;;;;;;15.10;37.74;98346.43;135301;1281;25474;-69
2024/03/10 03:51:21;;;;;;;52.20;23.50;;;;;;;15.27;37.69;98344.42;135329;1264;22533;-68
2024/03/10 03:54:25;;;;;;;52.90;24.50;;;;;;;15.10;37.74;98340.40;135355;1281;22526;-68
2024/03/10 03:57:27;;;;;;;;;;;;;;;15.00;37.79;98333.84;135365;1281;22510;-69
2024/03/10 04:00:31;;;;;;;51.80;22.80;;;;;;;14.78;38.02;98332.08;135345;1281;22542;-69
2024/03/10 04:03:33;;;;;;;51.50;23.10;;;;;;;14.65;38.24;98332.13;135322;1281;22530;-68
2024/03/10 04:06:40;;;;;;;50.00;23.20;;;;;;;14.49;38.67;98342.10;135321;1281;25356;-67
2024/03/10 04:09:42;;;;;;;51.00;22.70;;;;;;;14.31;38.96;98342.73;135318;1281;22553;-68
2024/03/10 04:12:45;;;;;;;45.30;21.00;;;;;;;14.41;38.89;98342.95;135306;1281;22538;-68
2024/03/10 04:15:47;;;;;;;;;;;;;;;14.45;38.71;98336.98;135322;1281;22532;-69
2024/03/10 04:18:50;;;;;;;46.80;22.20;;;;;;;14.32;39.07;98338.41;135326;1281;22549;-69
2024/03/10 04:21:52;;;;;;;;;;;;;;;14.25;39.06;98332.42;135361;1281;22501;-69
2024/03/10 04:24:56;;;;;;;49.50;22.50;;;;;;;14.12;39.07;98327.95;135310;1281;22542;-68
2024/03/10 04:27:59;;;;;;;52.70;23.70;;;;;;;14.75;37.94;98327.52;135313;1281;22538;-67
2024/03/10 04:31:01;;;;;;;;;;;;;;;15.11;37.42;98327.98;135370;1281;22594;-69
2024/03/10 04:34:04;;;;;;;48.60;22.80;;;;;;;15.19;37.27;98323.96;135350;1281;22519;-69
2024/03/10 04:37:08;;;;;;;52.20;23.70;;;;;;;15.17;37.01;98322.02;135326;1281;22535;-69
2024/03/10 04:40:12;;;;;;;53.60;24.30;;;;;;;14.93;37.36;98321.31;135309;1281;22537;-67
2024/03/10 04:43:16;;;;;;;49.50;22.50;;;;;;;15.02;37.48;98326.89;135329;1281;22553;-69
2024/03/10 04:46:18;;;;;;;49.40;22.60;;;;;;;15.16;37.04;98323.48;135282;1281;22550;-67
2024/03/10 04:49:21;;;;;;;44.20;20.70;;;;;;;15.12;36.92;98327.95;135343;1281;22705;-70
2024/03/10 04:52:23;;;;;;;47.80;21.40;;;;;;;14.84;37.58;98327.89;135321;1281;22535;-66
2024/03/10 04:55:26;;;;;;;46.40;21.60;;;;;;;13.85;39.38;98329.24;135305;1281;22646;-69
2024/03/10 04:58:29;;;;;;;51.20;23.10;;;;;;;12.88;40.89;98325.60;135318;1281;22547;-70
2024/03/10 05:01:31;;;;;;;;;;;;;;;12.35;42.20;98327.19;135376;1264;23231;-65
2024/03/10 05:04:34;;;;;;;49.30;21.90;;;;;;;12.40;42.03;98323.65;135321;1281;22531;-67
2024/03/10 05:07:36;;;;;;;;;;;;;;;12.16;42.40;98333.70;135372;1281;22565;-69
2024/03/10 05:10:40;;;;;;;51.00;22.40;;;;;;;12.39;42.21;98332.23;135265;1281;22523;-67
2024/03/10 05:13:43;;;;;;;49.70;22.00;;;;;;;13.69;39.61;98332.66;135363;1281;22526;-69
2024/03/10 05:16:46;;;;;;;51.00;21.60;;;;;;;12.05;42.66;98339.02;135336;1281;22641;-69
2024/03/10 05:19:49;;;;;;;50.30;21.00;;;;;;;12.53;41.97;98335.76;135324;1281;22525;-70
2024/03/10 05:22:51;;;;;;;47.90;20.90;;;;;;;12.78;41.47;98332.67;135363;1281;22542;-68
2024/03/10 05:25:54;;;;;;;;;;;;;;;12.62;41.94;98337.73;135345;1281;22515;-70
2024/03/10 05:28:56;;;;;;;43.50;20.50;;;;;;;12.50;42.13;98337.98;135371;1264;22582;-68
2024/03/10 05:31:59;;;;;;;45.90;20.50;;;;;;;12.44;42.40;98331.59;135364;1281;22638;-69
2024/03/10 05:35:05;;;;;;;47.90;21.30;;;;;;;12.54;42.31;98334.17;135352;1281;22643;-69
2024/03/10 05:38:07;;;;;;;47.90;21.30;;;;;;;12.77;41.86;98330.63;135318;1281;22599;-69
2024/03/10 05:41:10;;;;;;;43.00;19.70;;;;;;;12.72;41.84;98327.90;135343;1281;22541;-71
2024/03/10 05:44:14;;;;;;;45.80;21.60;;;;;;;12.69;42.09;98324.98;135331;1281;22526;-70
2024/03/10 05:47:16;;;;;;;48.90;22.80;;;;;;;12.85;41.84;98324.42;135365;1281;23404;-71
2024/03/10 05:50:20;;;;;;;46.70;21.10;;;;;;;12.72;42.23;98325.05;135335;1281;22547;-71
2024/03/10 05:53:23;;;;;;;44.90;20.40;;;;;;;12.62;42.24;98328.81;135288;1281;22527;-69
2024/03/10 05:56:25;;;;;;;;;;;;;;;12.80;42.09;98327.63;135289;1281;22520;-67
2024/03/10 05:59:28;;;;;;;43.00;18.50;;;;;;;12.80;42.20;98331.13;135311;1281;22539;-70
2024/03/10 06:02:30;;;;;;;41.10;18.20;;;;;;;12.79;42.59;98335.06;135301;1281;22535;-69
2024/03/10 06:05:33;;;;;;;44.60;20.70;;;;;;;12.95;42.50;98336.66;135359;1281;23875;-69
2024/03/10 06:08:36;;;;;;;45.10;20.90;;;;;;;13.20;42.15;98332.34;135345;1281;22616;-70
2024/03/10 06:11:38;;;;;;;43.80;20.50;;;;;;;13.44;42.23;98328.71;135336;1281;22542;-69
2024/03/10 06:14:41;;;;;;;;;;;;;;;13.71;41.66;98319.31;135376;1281;22543;-68
2024/03/10 06:18:02;;;;;;;40.50;18.50;;;;;;;13.99;41.22;98316.18;135350;1281;22549;-69
2024/03/10 06:27:45;;;;;;;42.10;18.70;;;;;;;14.47;40.95;98321.52;135353;1281;26513;-68
2024/03/10 06:30:58;;;;;;;41.40;17.70;;;;;;;14.56;40.98;98321.40;131197;1281;5371903;-68
2024/03/10 06:34:01;;;;;;;39.30;17.00;;;;;;;14.57;40.80;98324.20;135326;1281;22617;-68
2024/03/10 06:37:03;;;;;;;;;;;;;;;14.77;40.83;98326.50;135366;1281;23015;-67
2024/03/10 06:40:06;;;;;;;41.00;19.00;;;;;;;15.47;39.67;98330.09;135332;1281;25301;-68
2024/03/10 06:43:08;;;;;;;38.40;18.00;;;;;;;15.29;39.86;98330.52;135348;1281;22635;-67
2024/03/10 06:46:11;;;;;;;;;;;;;;;15.26;40.07;98328.42;135386;1281;22527;-67
2024/03/10 06:49:14;;;;;;;42.70;17.50;;;;;;;15.20;40.33;98328.30;135355;1281;22542;-67
2024/03/10 06:52:16;;;;;;;41.00;18.40;;;;;;;15.11;40.34;98327.36;135356;1281;25412;-68
2024/03/10 06:55:20;;;;;;;39.40;18.50;;;;;;;15.18;40.40;98328.83;135388;1281;22528;-67
2024/03/10 06:58:23;;;;;;;;;;;;;;;15.16;40.51;98325.60;136142;1273;22535;-68
2024/03/10 07:01:25;;;;;;;37.40;16.70;;;;;;;15.38;40.45;98328.81;136115;1274;22559;-68
2024/03/10 07:04:28;;;;;;;;;;;;;;;15.72;40.22;98329.69;136072;1274;22808;-68
2024/03/10 07:07:30;;;;;;;37.60;16.60;;;;;;;16.00;39.78;98327.72;136030;1274;22527;-70
2024/03/10 07:10:35;;;;;;;;;;;;;;;16.31;39.32;98322.91;136071;1273;22540;-69
2024/03/10 07:13:38;;;;;;;35.30;15.80;;;;;;;16.13;39.63;98321.19;136129;1273;22529;-69
2024/03/10 07:16:41;;;;;;;33.60;15.70;;;;;;;17.05;38.43;98309.17;136105;1273;24325;-69
2024/03/10 07:19:45;;;;;;;36.70;15.70;;;;;;;17.42;38.02;98306.30;136075;1254;22558;-68
2024/03/10 07:22:47;;;;;;;37.40;17.00;;;;;;;17.52;37.68;98302.69;136092;1273;24938;-69
2024/03/10 07:25:50;;;;;;;;;;;;;;;17.79;37.30;98299.70;136113;1273;22508;-69
2024/03/10 07:28:52;;;;;;;35.70;15.70;;;;;;;18.03;36.91;98301.91;136086;1251;22531;-69
2024/03/10 07:31:55;;;;;;;33.00;15.80;;;;;;;17.93;36.93;98305.14;136118;1273;22584;-68
2024/03/10 07:34:58;;;;;;;;;;;;;;;17.94;37.11;98302.85;136156;1274;25884;-67
2024/03/10 07:38:00;;;;;;;;;;;;;;;18.20;36.86;98296.48;136161;1273;22515;-67
2024/03/10 07:41:05;;;;;;;36.20;17.20;;;;;;;18.33;36.34;98293.08;136149;1273;26646;-67
2024/03/10 07:44:08;;;;;;;37.00;16.70;;;;;;;18.57;36.02;98285.17;136150;1273;22566;-69
2024/03/10 07:47:10;;;;;;;;;;;;;;;18.96;35.21;98281.49;136133;1273;23407;-68
2024/03/10 07:50:14;;;;;;;37.50;16.20;;;;;;;19.00;35.28;98283.22;136140;1273;22543;-70
2024/03/10 07:53:17;;;;;;;37.50;17.10;;;;;;;18.94;35.15;98280.66;136159;1273;22531;-70
2024/03/10 07:56:19;;;;;;;36.00;16.20;;;;;;;19.13;35.12;98277.58;136107;1273;22650;-69
2024/03/10 07:59:22;;;;;;;37.40;17.50;;;;;;;19.29;35.25;98276.62;136151;1273;22516;-70
2024/03/10 08:02:26;;;;;;;36.50;17.30;;;;;;;19.40;35.07;98278.84;136153;1271;25228;-68
2024/03/10 08:05:29;;;;;;;35.80;16.70;;;;;;;19.37;35.10;98280.73;136117;1273;22543;-68
2024/03/10 08:08:32;;;;;;;38.70;17.60;;;;;;;18.40;36.67;98285.35;136095;1273;24381;-69
2024/03/10 08:11:35;;;;;;;;;;;;;;;17.58;38.25;98291.15;136113;1273;25270;-68
2024/03/10 08:14:38;;;;;;;38.70;17.30;;;;;;;17.87;37.82;98280.61;136160;1273;22631;-70
2024/03/10 08:17:40;;;;;;;36.30;17.40;;;;;;;18.03;37.73;98280.17;136162;1273;22539;-68
2024/03/10 08:20:44;;;;;;;35.40;17.20;;;;;;;18.36;36.72;98270.45;136134;1274;22531;-67
2024/03/10 08:23:46;;;;;;;;;;;;;;;17.93;37.58;98279.08;136113;1273;22502;-70
2024/03/10 08:26:49;;;;;;;39.80;20.10;;;;;;;18.39;37.12;98271.80;136029;1273;25336;-68
2024/03/10 08:29:51;;;;;;;;;;;;;;;18.32;37.10;98273.34;136140;1273;22610;-70
2024/03/10 08:32:54;;;;;;;38.70;18.10;;;;;;;18.33;37.27;98273.77;136095;1273;22564;-68
2024/03/10 08:35:56;;;;;;;;;;;;;;;18.97;36.73;98270.86;136160;1273;25313;-69
2024/03/10 08:38:59;;;;;;;36.80;17.40;;;;;;;18.97;36.85;98266.20;136125;1273;22530;-69
2024/03/10 08:42:01;;;;;;;;;;;;;;;19.11;37.05;98264.35;136104;1273;22518;-69
2024/03/10 08:45:04;;;;;;;35.80;16.70;;;;;;;19.50;36.04;98264.83;136139;1273;23874;-68
2024/03/10 08:48:09;;;;;;;36.30;16.80;;;;;;;19.23;36.40;98255.11;136075;1274;22537;-68
2024/03/10 08:51:12;;;;;;;37.80;17.50;;;;;;;19.26;36.00;98250.86;136084;1273;25272;-67
2024/03/10 08:54:15;;;;;;;35.30;16.70;;;;;;;19.01;36.63;98250.58;136133;1254;22790;-69
2024/03/10 08:57:18;;;;;;;34.40;16.20;;;;;;;19.23;36.15;98245.70;136119;1273;24859;-68
2024/03/10 09:00:20;;;;;;;;;;;;;;;19.28;36.25;98237.24;136159;1273;22767;-69
2024/03/10 09:03:23;;;;;;;38.10;18.40;;;;;;;19.41;36.33;98234.23;136113;1273;22532;-71
2024/03/10 09:06:26;;;;;;;33.70;15.70;;;;;;;19.74;35.97;98241.05;136119;1273;22528;-71
2024/03/10 09:09:29;;;;;;;33.30;16.30;;;;;;;19.90;36.02;98238.96;136111;1273;22520;-69
2024/03/10 09:12:32;;;;;;;;;;;;;;;20.17;35.69;98235.80;136144;1274;22527;-68
2024/03/10 09:15:35;;;;;;;34.60;16.20;;;;;;;20.44;35.22;98233.62;136110;1273;22522;-69
2024/03/10 09:18:37;;;;;;;;;;;;;;;20.68;35.15;98234.44;136095;1273;23885;-68
2024/03/10 09:21:40;;;;;;;34.00;16.30;;;;;;;21.75;34.12;98236.96;136143;1273;22519;-68
2024/03/10 09:24:42;;;;;;;32.20;15.70;;;;;;;22.17;33.11;98227.34;136150;1273;22525;-69
2024/03/10 09:27:45;;;;;;;;;;;;;;;21.55;34.61;98232.30;136126;1273;22505;-67
2024/03/10 09:30:48;;;;;;;32.40;14.10;;;;;;;21.89;34.06;98224.99;136111;1273;22531;-67
2024/03/10 09:33:52;;;;;;;31.30;15.10;;;;;;;21.78;33.86;98226.30;136111;1273;22527;-67
2024/03/10 09:36:54;;;;;;;31.30;15.20;;;;;;;21.59;33.64;98228.52;136062;1273;24377;-68
2024/03/10 09:39:57;;;;;;;31.90;14.50;;;;;;;22.09;33.03;98232.92;136043;1273;23327;-68
2024/03/10 09:43:00;;;;;;;31.10;14.80;;;;;;;22.31;32.73;98235.63;136123;1273;22516;-68
2024/03/10 09:46:02;;;;;;;29.40;14.10;;;;;;;21.65;32.90;98239.80;136198;1273;22531;-66
2024/03/10 09:49:06;;;;;;;;;;;;;;;21.87;32.97;98236.23;136197;1273;22504;-68
2024/03/10 09:52:09;;;;;;;31.90;13.80;;;;;;;22.01;32.75;98237.97;136153;1273;22539;-68
2024/03/10 09:55:12;;;;;;;;;;;;;;;21.73;33.00;98242.05;136186;1273;22521;-66
2024/03/10 09:58:15;;;;;;;29.60;13.30;;;;;;;21.73;33.22;98240.46;136110;1273;25570;-68
2024/03/10 10:01:18;;;;;;;29.90;13.90;;;;;;;22.28;32.85;98241.36;136141;1273;23925;-68
2024/03/10 10:04:25;;;;;;;29.30;14.00;;;;;;;22.38;32.18;98243.96;136161;1273;25333;-68
2024/03/10 10:07:29;;;;;;;30.50;14.40;;;;;;;21.76;32.11;98244.04;136174;1274;22542;-68
2024/03/10 10:10:32;;;;;;;31.70;15.00;;;;;;;21.58;33.00;98240.63;136141;1274;22546;-69
2024/03/10 10:13:35;;;;;;;29.80;14.10;;;;;;;21.30;33.13;98235.53;136092;1273;22754;-68
2024/03/10 10:16:38;;;;;;;29.70;13.70;;;;;;;21.59;33.03;98240.69;136045;1273;25316;-68
2024/03/10 10:19:41;;;;;;;33.00;14.40;;;;;;;21.51;32.82;98241.08;136073;1274;24372;-68
2024/03/10 10:22:44;;;;;;;30.90;14.20;;;;;;;22.25;32.30;98234.42;136144;1274;22530;-66
2024/03/10 10:25:48;;;;;;;30.90;14.10;;;;;;;22.54;32.16;98239.02;136130;1274;22821;-67
2024/03/10 10:28:51;;;;;;;30.20;13.70;;;;;;;22.91;31.71;98231.02;136186;1274;22521;-68
2024/03/10 10:31:55;;;;;;;29.50;13.00;;;;;;;23.10;31.61;98222.96;136155;1254;22527;-69
2024/03/10 10:34:59;;;;;;;32.50;14.80;;;;;;;23.01;31.08;98221.90;136179;1273;22520;-68
2024/03/10 10:38:04;;;;;;;32.50;14.20;;;;;;;22.53;31.95;98226.10;136162;1270;24262;-69
2024/03/10 10:41:07;;;;;;;29.90;14.00;;;;;;;22.43;31.83;98226.63;136161;1267;22518;-68
2024/03/10 10:44:11;;;;;;;30.00;14.30;;;;;;;22.06;32.30;98224.02;136128;1273;22519;-68
2024/03/10 10:47:14;;;;;;;32.10;14.10;;;;;;;22.06;32.30;98222.77;136172;1273;22562;-67
2024/03/10 10:50:24;;;;;;;29.70;13.60;;;;;;;21.75;32.18;98221.05;136167;1273;24249;-68
2024/03/10 10:53:27;;;;;;;30.10;14.00;;;;;;;22.23;31.96;98222.21;136112;1273;22558;-67
2024/03/10 10:56:32;;;;;;;31.20;14.20;;;;;;;22.42;32.05;98224.55;136110;1273;22541;-68
2024/03/10 10:59:35;;;;;;;29.80;13.50;;;;;;;22.62;31.67;98227.09;136126;1273;22542;-68
2024/03/10 11:02:38;;;;;;;30.50;13.90;;;;;;;22.72;31.30;98234.67;136213;1273;22528;-69
2024/03/10 11:05:40;;;;;;;;;;;;;;;22.89;31.02;98235.89;136151;1273;22498;-69
2024/03/10 11:08:43;;;;;;;29.10;12.90;;;;;;;22.74;31.25;98236.55;136164;1273;22543;-69
2024/03/10 11:11:47;;;;;;;31.70;13.70;;;;;;;22.63;31.39;98234.63;136153;1254;22645;-68
2024/03/10 11:14:50;;;;;;;30.60;13.30;;;;;;;22.51;31.47;98227.23;136178;1273;22538;-67
2024/03/10 11:17:52;;;;;;;;;;;;;;;22.66;31.32;98219.41;136207;1273;25221;-68
2024/03/10 11:20:56;;;;;;;29.30;13.80;;;;;;;22.66;31.38;98217.40;136120;1273;22519;-68
2024/03/10 11:23:58;;;;;;;29.50;12.90;;;;;;;21.99;32.17;98213.86;136171;1254;22519;-67
2024/03/10 11:27:01;;;;;;;29.40;14.00;;;;;;;21.69;32.53;98212.08;136135;1273;22545;-67
2024/03/10 11:30:04;;;;;;;29.80;13.30;;;;;;;21.61;32.79;98212.72;136140;1273;22516;-67
2024/03/10 11:33:06;;;;;;;30.10;12.30;;;;;;;21.68;32.75;98212.80;136155;1273;22523;-68
2024/03/10 11:36:09;;;;;;;28.40;12.40;;;;;;;21.96;32.31;98203.15;136159;1273;22840;-67
2024/03/10 11:39:19;;;;;;;28.40;12.70;;;;;;;21.93;32.25;98204.88;136182;1273;22568;-68
2024/03/10 11:42:35;;;;;;;;;;;;;;;21.84;32.41;98202.80;136144;1273;22515;-66
2024/03/10 11:45:40;;;;;;;28.40;12.10;;;;;;;21.90;32.31;98195.92;136099;1273;22600;-69
2024/03/10 11:48:43;;;;;;;27.20;11.90;;;;;;;21.73;32.81;98191.29;136135;1273;22533;-67
2024/03/10 11:51:46;;;;;;;26.80;11.70;;;;;;;21.96;32.73;98188.19;136143;1273;22650;-69
2024/03/10 11:54:49;;;;;;;26.00;11.40;;;;;;;22.02;32.74;98180.92;136150;1273;22530;-69
2024/03/10 11:57:52;;;;;;;26.90;12.00;;;;;;;22.37;32.13;98182.58;136037;1273;22573;-69
2024/03/10 12:00:54;;;;;;;;;;;;;;;21.66;33.27;98179.06;136061;1273;22515;-67
2024/03/10 12:03:57;;;;;;;29.00;12.00;;;;;;;21.85;32.52;98177.89;136079;1273;22993;-67
2024/03/10 12:06:59;;;;;;;;;;;;;;;21.99;32.30;98175.89;136111;1254;24233;-67
2024/03/10 12:10:08;;;;;;;28.60;11.90;;;;;;;21.92;32.22;98180.83;136092;1273;25335;-67
2024/03/10 12:13:11;;;;;;;26.10;11.30;;;;;;;21.60;32.44;98180.82;136138;1273;25386;-68
2024/03/10 12:16:14;;;;;;;26.90;11.00;;;;;;;21.54;32.72;98182.52;136135;1273;22526;-67
2024/03/10 12:19:16;;;;;;;;;;;;;;;21.16;33.34;98172.89;136115;1273;22520;-67
2024/03/10 12:22:19;;;;;;;27.20;11.40;;;;;;;21.33;33.97;98163.49;136139;1273;22516;-67
2024/03/10 12:25:21;;;;;;;;;;;;;;;21.81;33.73;98155.34;136198;1273;22551;-67
2024/03/10 12:28:25;;;;;;;27.80;11.70;;;;;;;21.82;33.77;98142.27;136139;1273;22527;-68
2024/03/10 12:31:28;;;;;;;25.90;10.70;;;;;;;21.65;34.43;98132.38;136160;1273;22519;-68
2024/03/10 12:34:31;;;;;;;29.90;12.00;;;;;;;21.32;35.31;98131.24;136159;1273;22558;-67
2024/03/10 12:37:34;;;;;;;26.80;11.50;;;;;;;21.17;35.29;98146.11;136144;1273;22535;-68
2024/03/10 12:40:36;;;;;;;;;;;;;;;21.16;35.63;98159.00;136142;1271;22498;-69
2024/03/10 12:43:40;;;;;;;28.20;11.70;;;;;;;21.08;35.79;98162.27;136152;1273;25435;-67
2024/03/10 12:46:43;;;;;;;26.80;11.30;;;;;;;21.09;35.78;98167.67;136168;1273;22992;-69
2024/03/10 12:49:46;;;;;;;;;;;;;;;20.80;36.17;98167.90;136193;1274;22612;-71
2024/03/10 12:52:48;;;;;;;28.60;10.30;;;;;;;20.26;37.08;98169.84;136165;1273;22520;-68
2024/03/10 12:55:51;;;;;;;28.50;10.20;;;;;;;20.81;36.50;98164.27;136149;1273;22529;-68
2024/03/10 12:58:54;;;;;;;;;;;;;;;20.81;36.55;98163.68;136153;1274;22536;-72
2024/03/10 13:01:56;;;;;;;24.50;9.90;;;;;;;20.60;37.00;98165.19;136136;1273;25701;-70
2024/03/10 13:04:59;;;;;;;;;;;;;;;20.69;36.92;98164.77;136198;1273;22499;-69
2024/03/10 13:08:01;;;;;;;24.10;9.80;;;;;;;20.70;36.81;98157.54;136141;1273;22568;-67
2024/03/10 13:11:05;;;;;;;;;;;;;;;20.77;36.58;98156.05;136157;1274;22504;-68
2024/03/10 13:14:08;;;;;;;25.60;10.00;;;;;;;21.27;35.90;98158.67;136084;1274;22516;-70
2024/03/10 13:17:11;;;;;;;24.30;10.40;;;;;;;21.23;35.85;98165.31;136115;1256;23556;-69
2024/03/10 13:20:16;;;;;;;25.50;10.10;;;;;;;21.22;35.75;98158.02;136140;1273;22519;-68
2024/03/10 13:23:18;;;;;;;24.90;9.60;;;;;;;21.54;35.27;98154.09;136108;1274;22551;-68
2024/03/10 13:26:21;;;;;;;25.30;10.60;;;;;;;21.62;35.19;98154.29;136117;1273;22515;-70
2024/03/10 13:29:24;;;;;;;27.80;9.80;;;;;;;21.56;35.53;98150.14;136143;1274;22527;-71
2024/03/10 13:32:26;;;;;;;25.60;9.40;;;;;;;21.84;35.15;98146.51;136165;1274;22533;-71
2024/03/10 13:35:29;;;;;;;;;;;;;;;21.89;35.15;98132.64;136206;1273;22514;-69
2024/03/10 13:38:32;;;;;;;25.60;10.50;;;;;;;22.23;34.72;98127.96;136155;1254;22520;-69
2024/03/10 13:41:34;;;;;;;24.90;9.50;;;;;;;21.86;35.25;98125.87;136176;1273;22632;-68
2024/03/10 13:44:37;;;;;;;;;;;;;;;21.86;35.30;98128.90;136187;1273;24337;-68
2024/03/10 13:47:40;;;;;;;24.00;9.20;;;;;;;22.04;34.95;98122.45;136156;1273;22521;-69
2024/03/10 13:50:44;;;;;;;26.10;10.10;;;;;;;21.88;35.23;98120.05;136138;1273;22520;-70
2024/03/10 13:53:47;;;;;;;25.00;9.30;;;;;;;21.67;35.33;98116.54;136159;1273;24244;-69
2024/03/10 13:56:49;;;;;;;;;;;;;;;21.81;35.12;98114.52;136170;1273;22495;-68
2024/03/10 13:59:52;;;;;;;26.50;9.90;;;;;;;21.64;35.45;98117.08;136159;1273;22519;-70
2024/03/10 14:02:55;;;;;;;22.30;8.40;;;;;;;21.91;34.88;98113.79;136150;1254;24228;-69
2024/03/10 14:05:58;;;;;;;22.80;9.00;;;;;;;21.36;35.40;98113.27;136108;1273;22521;-68
2024/03/10 14:09:01;;;;;;;;;;;;;;;21.48;35.39;98107.55;136162;1273;22496;-67
2024/03/10 14:12:05;;;;;;;23.80;8.90;;;;;;;21.73;35.08;98104.71;136173;1264;22549;-69
2024/03/10 14:15:09;;;;;;;22.40;8.70;;;;;;;21.82;34.74;98104.05;136140;1273;22552;-68
2024/03/10 14:18:13;;;;;;;24.20;9.60;;;;;;;21.58;35.14;98100.08;136121;1273;22533;-70
2024/03/10 14:21:15;;;;;;;24.20;9.20;;;;;;;21.47;35.45;98102.98;136126;1274;22523;-70
2024/03/10 14:24:18;;;;;;;;;;;;;;;21.58;35.27;98104.95;136130;1274;22642;-68
2024/03/10 14:27:20;;;;;;;24.20;9.90;;;;;;;21.60;35.24;98107.84;136091;1274;22519;-68
2024/03/10 14:30:25;;;;;;;;;;;;;;;21.64;35.20;98105.09;136049;1274;22510;-67
2024/03/10 14:33:27;;;;;;;23.70;9.50;;;;;;;21.44;35.59;98106.01;136045;1274;22557;-68